Time;durP1;ratioP1;P1;durP2;ratioP2;P2;SDS_P1;SDS_P2;PMS_P1;PMS_P2;Temp;Humidity;BMP_temperature;BMP_pressure;BME280_temperature;BME280_humidity;BME280_pressure;Samples;Min_cycle;Max_cycle;Signal;HPM_P1;HPM_P2
2021/01/13 00:00:22;;;;;;;1.03;0.80;;;19.40;21.60;;;;;;4974800;28;20216;-51
2021/01/13 00:02:48;;;;;;;1.60;1.20;;;19.40;21.60;;;;;;4974778;28;20779;-51
2021/01/13 00:05:14;;;;;;;1.10;0.80;;;19.40;21.60;;;;;;4974654;28;20594;-52
2021/01/13 00:07:41;;;;;;;1.33;1.00;;;19.40;21.60;;;;;;4974277;28;20217;-51
2021/01/13 00:10:08;;;;;;;0.63;0.63;;;19.40;21.60;;;;;;4974497;28;20182;-51
2021/01/13 00:12:34;;;;;;;1.30;1.15;;;19.40;22.20;;;;;;4974496;28;20186;-51
2021/01/13 00:15:00;;;;;;;0.80;0.80;;;19.40;21.60;;;;;;4974762;28;20166;-51
2021/01/13 00:17:26;;;;;;;1.20;0.60;;;19.40;21.60;;;;;;4974368;28;20212;-51
2021/01/13 00:19:51;;;;;;;1.47;0.80;;;19.40;21.60;;;;;;4974671;28;20193;-52
2021/01/13 00:22:17;;;;;;;1.27;0.97;;;19.40;21.60;;;;;;4974093;28;20170;-51
2021/01/13 00:24:43;;;;;;;1.17;0.80;;;19.30;21.60;;;;;;4974487;28;20162;-51
2021/01/13 00:27:08;;;;;;;1.00;0.90;;;19.40;21.70;;;;;;4974443;28;20154;-51
2021/01/13 00:29:34;;;;;;;1.50;1.20;;;19.40;21.60;;;;;;4974388;28;20229;-51
2021/01/13 00:32:00;;;;;;;1.23;0.73;;;19.40;21.60;;;;;;4974396;28;20166;-52
2021/01/13 00:34:29;;;;;;;1.20;0.93;;;19.40;21.60;;;;;;4974522;28;20240;-51
2021/01/13 00:36:55;;;;;;;0.77;0.77;;;19.40;21.60;;;;;;4974301;28;20169;-52
2021/01/13 00:39:21;;;;;;;1.70;1.10;;;19.40;21.70;;;;;;4974240;28;20170;-51
2021/01/13 00:41:46;;;;;;;1.17;1.00;;;19.40;21.60;;;;;;4974536;28;20496;-51
2021/01/13 00:44:12;;;;;;;1.20;1.10;;;19.30;21.60;;;;;;4974422;28;20632;-51
2021/01/13 00:46:40;;;;;;;0.70;0.70;;;19.40;22.20;;;;;;4974357;28;20501;-51
2021/01/13 00:49:07;;;;;;;1.90;1.00;;;19.40;21.70;;;;;;4974376;28;20412;-52
2021/01/13 00:51:36;;;;;;;0.70;0.70;;;19.40;21.70;;;;;;4974444;28;20169;-51
2021/01/13 00:54:04;;;;;;;0.90;0.80;;;19.40;21.70;;;;;;4973617;28;20269;-52
2021/01/13 00:56:30;;;;;;;1.30;1.13;;;19.40;21.20;;;;;;4974275;28;20234;-52
2021/01/13 00:58:57;;;;;;;0.93;0.90;;;19.40;21.70;;;;;;4974821;28;20236;-51
2021/01/13 01:01:25;;;;;;;1.05;0.90;;;19.40;21.60;;;;;;4975239;28;20257;-52
2021/01/13 01:03:51;;;;;;;1.33;0.82;;;19.40;21.60;;;;;;4976392;28;20735;-51
2021/01/13 01:06:17;;;;;;;2.45;1.13;;;19.40;21.60;;;;;;4977629;28;20177;-51
2021/01/13 01:08:44;;;;;;;1.13;1.03;;;19.40;21.60;;;;;;4977185;28;20166;-51
2021/01/13 01:11:10;;;;;;;3.03;1.35;;;19.40;21.60;;;;;;4977671;28;20273;-51
2021/01/13 01:13:37;;;;;;;0.80;0.70;;;19.40;21.60;;;;;;4977491;28;20634;-51
2021/01/13 01:16:03;;;;;;;1.35;1.20;;;19.40;21.60;;;;;;4977421;28;20909;-51
2021/01/13 01:18:29;;;;;;;1.90;0.95;;;19.40;21.60;;;;;;4977426;28;20201;-51
2021/01/13 01:20:54;;;;;;;1.30;0.67;;;19.40;22.20;;;;;;4977512;28;20182;-51
2021/01/13 01:23:20;;;;;;;1.20;1.00;;;19.40;21.60;;;;;;4976997;28;20154;-51
2021/01/13 01:25:46;;;;;;;0.80;0.80;;;19.40;21.60;;;;;;4977407;28;20556;-50
2021/01/13 01:28:11;;;;;;;0.90;0.80;;;19.40;21.60;;;;;;4977142;28;20174;-50
2021/01/13 01:30:37;;;;;;;1.13;1.03;;;19.40;21.60;;;;;;4977216;28;20200;-51
2021/01/13 01:33:06;;;;;;;1.23;1.13;;;19.40;21.60;;;;;;4975732;28;20510;-51
2021/01/13 01:35:31;;;;;;;1.48;1.38;;;18.20;20.80;;;;;;4977059;28;20410;-51
2021/01/13 01:37:57;;;;;;;0.80;0.70;;;19.50;21.70;;;;;;4976765;28;20165;-51
2021/01/13 01:40:22;;;;;;;1.17;0.90;;;19.50;21.70;;;;;;4976961;28;20170;-50
2021/01/13 01:42:51;;;;;;;4.50;0.93;;;19.50;21.70;;;;;;4977100;28;20529;-51
2021/01/13 01:45:19;;;;;;;1.08;0.98;;;19.50;21.70;;;;;;4976960;28;20154;-51
2021/01/13 01:48:10;;;;;;;0.75;0.60;;;19.50;21.70;;;;;;4976742;28;20161;-51
2021/01/13 01:50:38;;;;;;;0.80;0.80;;;19.50;21.70;;;;;;4976555;28;20154;-50
2021/01/13 01:53:31;;;;;;;0.80;0.77;;;19.50;21.60;;;;;;4975967;28;20194;-51
2021/01/13 01:56:03;;;;;;;0.80;0.65;;;19.50;21.60;;;;;;4976579;28;20162;-51
2021/01/13 01:58:30;;;;;;;1.30;0.80;;;19.50;21.60;;;;;;4976127;28;20625;-51
2021/01/13 02:01:00;;;;;;;0.88;0.75;;;19.50;21.60;;;;;;4975959;28;20261;-51
2021/01/13 02:03:47;;;;;;;0.60;0.60;;;19.50;21.60;;;;;;4976761;28;20176;-51
2021/01/13 02:06:18;;;;;;;1.20;1.10;;;19.50;21.60;;;;;;4976019;28;20217;-50
2021/01/13 02:08:46;;;;;;;1.23;0.70;;;19.50;21.60;;;;;;4976041;28;20554;-51
2021/01/13 02:11:16;;;;;;;1.48;1.10;;;19.50;21.70;;;;;;4975822;28;20173;-51
2021/01/13 02:13:46;;;;;;;1.10;1.00;;;19.50;21.10;;;;;;4976304;28;20216;-52
2021/01/13 02:16:14;;;;;;;1.20;1.00;;;19.50;21.60;;;;;;4976456;28;20250;-51
2021/01/13 02:18:44;;;;;;;1.23;0.93;;;19.60;21.60;;;;;;4976491;28;20165;-51
2021/01/13 02:21:31;;;;;;;0.90;0.77;;;19.60;21.60;;;;;;4976299;28;20169;-50
2021/01/13 02:24:09;;;;;;;1.10;1.00;;;19.60;21.60;;;;;;4975671;28;20240;-51
2021/01/13 02:27:16;;;;;;;1.08;0.98;;;19.60;21.60;;;;;;4976252;28;20150;-51
2021/01/13 02:29:45;;;;;;;1.00;0.90;;;19.60;21.60;;;;;;4976118;28;20217;-52
2021/01/13 02:32:16;;;;;;;0.77;0.65;;;19.60;21.60;;;;;;4975911;28;20216;-50
2021/01/13 02:34:55;;;;;;;0.80;0.80;;;19.60;21.60;;;;;;4975919;28;20238;-52
2021/01/13 02:37:33;;;;;;;1.35;0.98;;;19.60;21.60;;;;;;4975466;28;20166;-51
2021/01/13 02:40:03;;;;;;;1.00;0.88;;;19.60;21.60;;;;;;4976061;28;20150;-51
2021/01/13 02:42:35;;;;;;;0.75;0.70;;;19.60;21.50;;;;;;4975776;28;20169;-51
2021/01/13 02:45:03;;;;;;;1.10;1.00;;;19.60;21.50;;;;;;4975986;28;20624;-51
2021/01/13 02:48:06;;;;;;;1.63;0.88;;;19.60;21.50;;;;;;4975803;28;20189;-50
2021/01/13 02:50:38;;;;;;;0.80;0.70;;;19.60;21.60;;;;;;4971326;28;20189;-51
2021/01/13 02:53:13;;;;;;;1.20;1.10;;;19.60;21.50;;;;;;4975172;28;20244;-51
2021/01/13 02:56:03;;;;;;;1.00;0.88;;;19.70;21.60;;;;;;4975579;28;20204;-50
2021/01/13 02:58:37;;;;;;;1.08;0.82;;;19.70;21.60;;;;;;4975339;28;20670;-51
2021/01/13 03:01:07;;;;;;;0.80;0.75;;;19.70;21.60;;;;;;4975376;28;20565;-50
2021/01/13 03:03:35;;;;;;;1.02;0.93;;;19.70;21.60;;;;;;4975499;28;20185;-50
2021/01/13 03:06:07;;;;;;;1.35;0.95;;;19.70;21.60;;;;;;4975690;28;20169;-50
2021/01/13 03:08:55;;;;;;;0.75;0.70;;;19.70;21.50;;;;;;4974974;28;20161;-51
2021/01/13 03:11:21;;;;;;;0.80;0.80;;;19.70;21.50;;;;;;4975271;28;20161;-51
2021/01/13 03:13:47;;;;;;;0.85;0.70;;;19.70;21.50;;;;;;4975272;28;20182;-49
2021/01/13 03:16:14;;;;;;;1.50;0.90;;;19.70;21.50;;;;;;4975315;28;20162;-51
2021/01/13 03:19:04;;;;;;;0.95;0.77;;;19.70;21.50;;;;;;4975263;28;20168;-50
2021/01/13 03:21:55;;;;;;;1.17;1.08;;;19.70;21.50;;;;;;4975263;28;20154;-51
2021/01/13 03:24:48;;;;;;;2.30;1.00;;;19.70;21.50;;;;;;4974701;28;20175;-50
2021/01/13 03:27:16;;;;;;;1.30;0.93;;;19.70;21.50;;;;;;4974618;28;20193;-51
2021/01/13 03:29:45;;;;;;;1.10;0.95;;;19.70;21.50;;;;;;4975080;28;20249;-51
2021/01/13 03:32:18;;;;;;;1.27;0.75;;;19.70;21.50;;;;;;4975020;28;20162;-51
2021/01/13 03:35:07;;;;;;;0.80;0.80;;;19.70;22.00;;;;;;4975360;28;20605;-52
2021/01/13 03:37:57;;;;;;;0.70;0.70;;;19.70;21.50;;;;;;4974666;28;20237;-51
2021/01/13 03:40:25;;;;;;;0.93;0.70;;;19.70;21.50;;;;;;4974887;28;20252;-51
2021/01/13 03:42:53;;;;;;;0.90;0.85;;;19.70;21.50;;;;;;4975083;28;20237;-50
2021/01/13 03:45:32;;;;;;;0.70;0.70;;;19.70;21.50;;;;;;4974967;28;20509;-50
2021/01/13 03:48:02;;;;;;;1.20;1.00;;;19.80;21.50;;;;;;4974784;28;20165;-49
2021/01/13 03:51:01;;;;;;;1.00;0.70;;;19.80;21.50;;;;;;4974823;28;20627;-50
2021/01/13 03:53:28;;;;;;;0.98;0.75;;;19.80;21.50;;;;;;4962924;28;20345;-51
2021/01/13 03:55:56;;;;;;;0.80;0.80;;;19.70;21.00;;;;;;4974830;28;20201;-51
2021/01/13 03:58:50;;;;;;;1.30;1.10;;;19.70;21.40;;;;;;4973405;28;20165;-51
2021/01/13 04:01:22;;;;;;;1.00;0.90;;;19.80;21.50;;;;;;4974662;28;20228;-51
2021/01/13 04:04:14;;;;;;;0.60;0.60;;;19.80;21.50;;;;;;4974848;28;20154;-51
2021/01/13 04:06:44;;;;;;;0.88;0.73;;;19.80;21.50;;;;;;4974555;28;20196;-51
2021/01/13 04:09:17;;;;;;;1.48;0.98;;;19.80;21.50;;;;;;4974274;28;20208;-51
2021/01/13 04:11:49;;;;;;;0.70;0.70;;;19.80;21.50;;;;;;4974771;28;20186;-50
2021/01/13 04:14:18;;;;;;;1.10;1.00;;;19.80;21.50;;;;;;4974410;28;20231;-51
2021/01/13 04:16:44;;;;;;;1.33;0.68;;;19.80;21.00;;;;;;4974577;28;20164;-51
2021/01/13 04:19:10;;;;;;;1.00;0.80;;;19.80;21.50;;;;;;4974659;28;20162;-51
2021/01/13 04:21:36;;;;;;;1.17;0.90;;;19.80;21.50;;;;;;4974609;28;20513;-51
2021/01/13 04:24:03;;;;;;;1.37;0.83;;;19.80;21.50;;;;;;4974019;28;20540;-51
2021/01/13 04:26:29;;;;;;;0.98;0.90;;;19.80;21.50;;;;;;4974491;28;20464;-51
2021/01/13 04:28:56;;;;;;;1.02;0.70;;;19.80;21.50;;;;;;4974376;28;20213;-52
2021/01/13 04:31:24;;;;;;;0.80;0.80;;;19.90;21.50;;;;;;4972925;28;20232;-51
2021/01/13 04:33:50;;;;;;;0.80;0.80;;;19.90;21.50;;;;;;4974715;28;20197;-51
2021/01/13 04:36:17;;;;;;;0.90;0.68;;;19.90;21.50;;;;;;4978270;28;20184;-50
2021/01/13 04:38:44;;;;;;;0.73;0.73;;;19.90;21.50;;;;;;4977729;28;20193;-50
2021/01/13 04:41:17;;;;;;;0.80;0.70;;;19.90;21.50;;;;;;4978317;28;20265;-50
2021/01/13 04:43:53;;;;;;;0.93;0.82;;;19.90;21.50;;;;;;4978043;28;20162;-51
2021/01/13 04:46:28;;;;;;;0.77;0.60;;;19.90;21.50;;;;;;4978213;28;20204;-51
2021/01/13 04:49:17;;;;;;;0.93;0.80;;;19.90;21.50;;;;;;4977970;28;20192;-50
2021/01/13 04:51:44;;;;;;;0.90;0.70;;;19.90;21.40;;;;;;4977889;28;20162;-51
2021/01/13 04:54:15;;;;;;;0.70;0.70;;;19.90;21.50;;;;;;4977187;28;20186;-51
2021/01/13 04:56:44;;;;;;;1.45;0.70;;;19.90;21.40;;;;;;4977893;28;20154;-50
2021/01/13 04:59:15;;;;;;;1.05;0.80;;;19.90;21.40;;;;;;4977810;28;20163;-51
2021/01/13 05:02:11;;;;;;;1.05;0.65;;;19.90;21.40;;;;;;4977781;28;20177;-50
2021/01/13 05:05:00;;;;;;;1.45;0.80;;;19.90;21.40;;;;;;4977824;28;20161;-51
2021/01/13 05:07:30;;;;;;;1.13;0.98;;;19.90;21.40;;;;;;4977097;28;20351;-51
2021/01/13 05:10:03;;;;;;;1.08;0.80;;;19.90;21.40;;;;;;4977829;28;20157;-50
2021/01/13 05:12:47;;;;;;;0.75;0.65;;;19.90;21.40;;;;;;4977564;28;20165;-50
2021/01/13 05:15:27;;;;;;;0.80;0.70;;;19.90;21.40;;;;;;4977684;28;20166;-51
2021/01/13 05:17:58;;;;;;;1.33;0.90;;;20.00;21.50;;;;;;4977411;28;20181;-50
2021/01/13 05:20:29;;;;;;;0.70;0.70;;;20.00;21.50;;;;;;4977444;28;20150;-51
2021/01/13 05:22:57;;;;;;;1.02;0.93;;;20.00;21.40;;;;;;4976873;28;20169;-50
2021/01/13 05:25:37;;;;;;;1.20;0.88;;;20.00;21.40;;;;;;4977583;28;20188;-51
2021/01/13 05:28:09;;;;;;;1.25;0.55;;;20.00;21.40;;;;;;4976017;28;20174;-49
2021/01/13 05:30:49;;;;;;;0.80;0.75;;;20.00;21.40;;;;;;4977417;28;20190;-50
2021/01/13 05:33:21;;;;;;;0.90;0.60;;;20.00;21.40;;;;;;4976851;28;20788;-51
2021/01/13 05:35:50;;;;;;;0.90;0.70;;;20.00;21.40;;;;;;4977094;28;20224;-51
2021/01/13 05:38:19;;;;;;;0.70;0.70;;;20.00;21.40;;;;;;4976531;28;20151;-50
2021/01/13 05:40:47;;;;;;;2.25;0.82;;;20.00;21.40;;;;;;4977148;28;20150;-51
2021/01/13 05:43:14;;;;;;;0.82;0.80;;;20.00;21.40;;;;;;4975683;28;20548;-50
2021/01/13 05:45:42;;;;;;;0.70;0.70;;;20.00;21.40;;;;;;4975898;28;20158;-49
2021/01/13 05:48:16;;;;;;;1.05;0.70;;;20.00;21.40;;;;;;4975532;28;20668;-51
2021/01/13 05:50:42;;;;;;;1.00;0.80;;;20.00;21.40;;;;;;4976999;28;20190;-51
2021/01/13 05:53:09;;;;;;;0.88;0.80;;;20.00;21.40;;;;;;4976350;28;20186;-51
2021/01/13 05:55:35;;;;;;;1.20;0.75;;;20.10;21.40;;;;;;4976683;28;20162;-50
2021/01/13 05:58:03;;;;;;;0.90;0.80;;;20.00;21.30;;;;;;4976696;28;20174;-50
2021/01/13 06:00:31;;;;;;;1.10;0.70;;;20.10;21.40;;;;;;4975421;28;20960;-51
2021/01/13 06:03:04;;;;;;;0.82;0.73;;;20.10;21.40;;;;;;4976518;28;20223;-50
2021/01/13 06:05:45;;;;;;;1.45;0.98;;;20.10;21.40;;;;;;4976500;28;20216;-50
2021/01/13 06:08:13;;;;;;;1.80;0.75;;;20.10;21.40;;;;;;4976070;28;20162;-51
2021/01/13 06:10:40;;;;;;;1.52;0.80;;;20.10;21.40;;;;;;4976789;28;20177;-50
2021/01/13 06:13:06;;;;;;;0.85;0.75;;;20.10;21.40;;;;;;4976240;28;20189;-50
2021/01/13 06:15:35;;;;;;;1.02;0.93;;;20.10;21.40;;;;;;4976467;28;20172;-50
2021/01/13 06:18:01;;;;;;;0.93;0.70;;;20.10;21.40;;;;;;4976101;28;20154;-51
2021/01/13 06:20:29;;;;;;;1.30;0.77;;;20.20;21.40;;;;;;4976084;28;20154;-50
2021/01/13 06:22:57;;;;;;;0.60;0.60;;;20.20;21.40;;;;;;4975699;28;20397;-50
2021/01/13 06:25:30;;;;;;;1.02;0.93;;;20.20;21.30;;;;;;4974423;28;20177;-50
2021/01/13 06:28:24;;;;;;;0.80;0.80;;;20.20;21.30;;;;;;4975911;28;20648;-49
2021/01/13 06:31:09;;;;;;;1.20;1.10;;;20.20;21.30;;;;;;4976084;28;20173;-50
2021/01/13 06:33:46;;;;;;;1.05;1.00;;;20.20;20.90;;;;;;4976074;28;20280;-51
2021/01/13 06:36:23;;;;;;;0.80;0.80;;;20.20;21.30;;;;;;4975866;28;20166;-50
2021/01/13 06:39:00;;;;;;;1.00;0.75;;;20.20;21.30;;;;;;4975338;28;20161;-50
2021/01/13 06:41:27;;;;;;;0.65;0.65;;;20.20;21.30;;;;;;4976127;28;20158;-51
2021/01/13 06:44:06;;;;;;;1.02;0.73;;;20.20;21.30;;;;;;4975684;28;20158;-49
2021/01/13 06:46:36;;;;;;;0.93;0.80;;;20.20;21.30;;;;;;4975606;28;20245;-51
2021/01/13 06:49:11;;;;;;;0.70;0.70;;;20.20;21.30;;;;;;4975252;28;20174;-50
2021/01/13 06:51:40;;;;;;;0.98;0.82;;;20.30;21.30;;;;;;4975391;28;20161;-51
2021/01/13 06:54:07;;;;;;;0.90;0.80;;;20.20;21.20;;;;;;4974852;28;20212;-51
2021/01/13 06:56:43;;;;;;;1.15;1.05;;;20.30;21.30;;;;;;4973878;28;20193;-50
2021/01/13 06:59:09;;;;;;;0.98;0.95;;;20.30;21.30;;;;;;4975440;28;20663;-50
2021/01/13 07:01:52;;;;;;;1.60;1.10;;;20.30;21.30;;;;;;4975126;28;20166;-50
2021/01/13 07:04:18;;;;;;;1.17;1.08;;;20.30;21.30;;;;;;4975036;28;20164;-50
2021/01/13 07:07:00;;;;;;;1.23;0.80;;;20.30;21.30;;;;;;4975068;28;20237;-50
2021/01/13 07:09:46;;;;;;;1.02;0.90;;;20.30;21.20;;;;;;4975061;28;20169;-51
2021/01/13 07:12:14;;;;;;;1.00;0.85;;;20.30;21.20;;;;;;4974926;28;20168;-50
2021/01/13 07:14:45;;;;;;;1.20;1.10;;;20.30;21.20;;;;;;4974892;28;20182;-50
2021/01/13 07:17:15;;;;;;;1.55;0.80;;;20.30;21.20;;;;;;4974822;28;20233;-50
2021/01/13 07:19:54;;;;;;;7.60;1.38;;;20.30;21.20;;;;;;4974722;28;20253;-50
2021/01/13 07:22:22;;;;;;;4.57;2.90;;;20.30;20.40;;;;;;4956872;28;20592;-49
2021/01/13 07:24:48;;;;;;;3.30;2.75;;;18.80;14.60;;;;;;4959897;28;20232;-50
2021/01/13 07:27:15;;;;;;;4.15;2.05;;;17.60;14.60;;;;;;4972530;28;20546;-52
2021/01/13 07:29:42;;;;;;;4.10;2.25;;;16.90;17.30;;;;;;4974342;28;20663;-52
2021/01/13 07:32:09;;;;;;;3.38;2.13;;;16.90;18.80;;;;;;4973269;28;20169;-50
2021/01/13 07:34:40;;;;;;;3.65;2.80;;;17.00;19.50;;;;;;4974754;28;20613;-52
2021/01/13 07:37:11;;;;;;;2.15;1.95;;;17.20;19.70;;;;;;4973760;28;20165;-51
2021/01/13 07:39:56;;;;;;;3.38;2.45;;;17.40;19.60;;;;;;4974644;28;20158;-51
2021/01/13 07:42:39;;;;;;;2.50;2.30;;;17.60;19.30;;;;;;4973097;28;20237;-52
2021/01/13 07:45:11;;;;;;;2.10;1.90;;;17.80;18.70;;;;;;4973584;28;20173;-51
2021/01/13 07:48:09;;;;;;;2.03;1.80;;;17.90;18.80;;;;;;4974331;28;20162;-52
2021/01/13 07:50:49;;;;;;;4.25;2.40;;;18.00;18.40;;;;;;4974130;28;20177;-52
2021/01/13 07:53:25;;;;;;;3.85;2.85;;;18.20;17.80;;;;;;4972686;28;20199;-50
2021/01/13 07:55:59;;;;;;;3.30;2.95;;;18.20;17.50;;;;;;4974431;28;20185;-51
2021/01/13 07:58:32;;;;;;;3.17;2.35;;;18.30;17.10;;;;;;4971764;28;20197;-50
2021/01/13 08:01:28;;;;;;;4.82;2.88;;;18.40;17.20;;;;;;4962628;28;20680;-52
2021/01/13 08:04:24;;;;;;;2.97;2.25;;;18.40;17.00;;;;;;4972815;28;20193;-51
2021/01/13 08:06:53;;;;;;;5.05;2.25;;;18.50;16.90;;;;;;4965695;28;20184;-51
2021/01/13 08:09:20;;;;;;;1.90;1.65;;;18.60;16.70;;;;;;4978789;28;20189;-51
2021/01/13 08:12:05;;;;;;;2.60;1.95;;;18.60;16.60;;;;;;4966673;28;20169;-52
2021/01/13 08:14:40;;;;;;;2.13;1.73;;;18.70;16.60;;;;;;4976829;28;20228;-51
2021/01/13 08:17:39;;;;;;;2.05;1.85;;;18.70;16.50;;;;;;4973375;28;20177;-50
2021/01/13 08:20:32;;;;;;;2.40;1.85;;;18.80;16.50;;;;;;4969461;28;20177;-52
2021/01/13 08:23:20;;;;;;;4.03;1.88;;;18.90;16.70;;;;;;4986496;28;20177;-50
2021/01/13 08:25:55;;;;;;;3.53;1.92;;;18.90;16.80;;;;;;4972134;28;20256;-52
2021/01/13 08:28:22;;;;;;;2.72;1.60;;;19.00;16.90;;;;;;4980281;28;20208;-50
2021/01/13 08:30:49;;;;;;;2.95;2.13;;;19.10;17.10;;;;;;4980779;28;20198;-50
2021/01/13 08:33:23;;;;;;;3.95;1.90;;;19.20;17.10;;;;;;4975483;28;20296;-52
2021/01/13 08:35:56;;;;;;;2.75;1.98;;;19.30;17.10;;;;;;4976346;28;20244;-52
2021/01/13 08:38:23;;;;;;;3.25;1.63;;;19.40;17.20;;;;;;4976588;28;20213;-50
2021/01/13 08:40:49;;;;;;;2.50;2.00;;;19.50;16.80;;;;;;4976387;28;20162;-52
2021/01/13 08:43:17;;;;;;;2.67;1.77;;;19.50;17.20;;;;;;4976620;28;20216;-52
2021/01/13 08:45:48;;;;;;;6.68;2.20;;;19.60;17.40;;;;;;4977200;28;20182;-50
2021/01/13 08:48:15;;;;;;;3.53;1.52;;;;;;;;;;4975583;28;20173;-51
2021/01/13 08:50:43;;;;;;;4.00;1.60;;;19.80;17.10;;;;;;4976479;28;20693;-50
2021/01/13 08:53:24;;;;;;;4.25;1.83;;;19.80;17.60;;;;;;4975729;28;20204;-51
2021/01/13 08:55:53;;;;;;;7.13;2.15;;;19.90;17.70;;;;;;4985725;28;20184;-52
2021/01/13 08:58:33;;;;;;;2.47;1.73;;;20.00;17.60;;;;;;4988192;28;20690;-52
2021/01/13 09:01:02;;;;;;;1.90;1.65;;;20.00;17.50;;;;;;4973396;28;20184;-51
2021/01/13 09:03:34;;;;;;;3.25;1.48;;;20.10;17.60;;;;;;4974397;28;20205;-52
2021/01/13 09:06:20;;;;;;;3.58;2.10;;;20.10;17.60;;;;;;4973906;28;20181;-51
2021/01/13 09:08:54;;;;;;;1.92;1.48;;;20.20;17.70;;;;;;4979729;28;20212;-51
2021/01/13 09:11:46;;;;;;;2.78;2.00;;;20.20;17.70;;;;;;4975107;28;20169;-51
2021/01/13 09:14:24;;;;;;;3.15;1.80;;;20.30;17.70;;;;;;4969819;28;20217;-52
2021/01/13 09:16:54;;;;;;;3.33;1.60;;;20.30;17.70;;;;;;4976676;28;20211;-50
2021/01/13 09:19:39;;;;;;;1.83;1.60;;;20.30;17.60;;;;;;4977355;28;20270;-51
2021/01/13 09:22:11;;;;;;;2.05;1.63;;;20.40;17.80;;;;;;4974359;28;20172;-52
2021/01/13 09:24:42;;;;;;;3.42;1.83;;;20.40;17.80;;;;;;4982680;28;20605;-52
2021/01/13 09:27:12;;;;;;;2.25;1.75;;;20.50;17.90;;;;;;4962609;28;20200;-52
2021/01/13 09:29:54;;;;;;;1.52;1.42;;;20.50;17.70;;;;;;4970021;28;20224;-51
2021/01/13 09:32:22;;;;;;;2.10;1.90;;;20.60;17.80;;;;;;4973463;28;20204;-50
2021/01/13 09:34:49;;;;;;;2.22;1.38;;;20.60;18.40;;;;;;4983633;28;20204;-52
2021/01/13 09:37:16;;;;;;;1.90;1.48;;;20.60;17.80;;;;;;4973633;28;20181;-50
2021/01/13 09:40:03;;;;;;;1.45;1.30;;;20.60;17.90;;;;;;4975570;28;20602;-51
2021/01/13 09:42:38;;;;;;;4.10;1.38;;;20.60;18.00;;;;;;4974603;28;20150;-51
2021/01/13 09:45:05;;;;;;;6.30;1.60;;;20.60;18.10;;;;;;4976462;28;20182;-50
2021/01/13 09:47:32;;;;;;;3.35;1.42;;;20.60;18.20;;;;;;4976894;28;20641;-49
2021/01/13 09:49:59;;;;;;;1.63;1.30;;;20.60;18.00;;;;;;4977916;28;20173;-50
2021/01/13 09:52:26;;;;;;;1.60;1.27;;;20.60;18.20;;;;;;4974242;28;20185;-50
2021/01/13 09:55:02;;;;;;;4.20;1.88;;;20.50;18.30;;;;;;4975303;28;20189;-51
2021/01/13 09:57:30;;;;;;;4.10;1.50;;;20.50;18.30;;;;;;4976060;28;20168;-50
2021/01/13 10:00:01;;;;;;;2.67;1.33;;;20.50;18.30;;;;;;4982522;28;20176;-50
2021/01/13 10:02:28;;;;;;;1.75;1.08;;;18.80;17.10;;;;;;4971455;28;20174;-50
2021/01/13 10:04:54;;;;;;;5.93;1.65;;;20.60;18.40;;;;;;4975159;28;20221;-50
2021/01/13 10:07:28;;;;;;;4.47;1.60;;;20.60;18.50;;;;;;4974065;28;20177;-50
2021/01/13 10:09:54;;;;;;;3.42;1.77;;;20.60;18.50;;;;;;4974071;28;20182;-51
2021/01/13 10:12:20;;;;;;;2.30;1.40;;;20.60;18.40;;;;;;4976156;28;20174;-51
2021/01/13 10:14:51;;;;;;;1.90;1.67;;;20.60;18.50;;;;;;4973799;28;20747;-51
2021/01/13 10:17:27;;;;;;;2.10;1.23;;;20.60;18.60;;;;;;4974076;28;20185;-51
2021/01/13 10:19:54;;;;;;;2.50;1.30;;;20.60;18.60;;;;;;4973631;28;20181;-51
2021/01/13 10:22:29;;;;;;;2.63;1.45;;;20.60;18.60;;;;;;4972926;28;20177;-51
2021/01/13 10:24:55;;;;;;;2.08;1.40;;;20.60;18.60;;;;;;4974938;28;20244;-51
2021/01/13 10:27:22;;;;;;;5.28;1.33;;;20.70;18.80;;;;;;4973845;28;20236;-51
2021/01/13 10:29:48;;;;;;;1.90;1.50;;;20.60;18.70;;;;;;4975285;28;20249;-51
2021/01/13 10:32:15;;;;;;;2.40;1.45;;;20.70;18.40;;;;;;4962923;28;20659;-50
2021/01/13 10:34:41;;;;;;;3.60;1.30;;;20.70;18.20;;;;;;4957015;28;20202;-52
2021/01/13 10:37:07;;;;;;;1.90;1.70;;;20.70;18.30;;;;;;4970188;28;20253;-51
2021/01/13 10:39:34;;;;;;;2.38;1.70;;;20.80;18.60;;;;;;4979856;28;20607;-51
2021/01/13 10:42:09;;;;;;;3.40;1.40;;;20.80;18.70;;;;;;4973235;28;20173;-51
2021/01/13 10:44:35;;;;;;;2.72;1.70;;;20.80;18.60;;;;;;4976355;28;20215;-51
2021/01/13 10:47:02;;;;;;;2.83;1.65;;;20.80;18.70;;;;;;4972673;28;20687;-52
2021/01/13 10:49:38;;;;;;;3.05;1.40;;;20.90;18.80;;;;;;4973722;28;20170;-51
2021/01/13 10:52:13;;;;;;;3.90;1.45;;;20.90;18.70;;;;;;4967196;28;20680;-52
2021/01/13 10:54:46;;;;;;;1.60;1.20;;;20.90;18.60;;;;;;4967907;28;20197;-53
2021/01/13 10:57:14;;;;;;;2.42;1.30;;;20.90;18.60;;;;;;4961397;28;20224;-52
2021/01/13 10:59:41;;;;;;;2.10;1.30;;;21.00;18.70;;;;;;4971605;28;20173;-52
2021/01/13 11:02:08;;;;;;;1.27;1.05;;;21.00;18.60;;;;;;4971356;28;20170;-51
2021/01/13 11:04:41;;;;;;;2.03;1.55;;;21.10;18.70;;;;;;4972741;28;20193;-51
2021/01/13 11:07:12;;;;;;;4.93;1.23;;;21.10;18.70;;;;;;4969601;28;20177;-50
2021/01/13 11:09:41;;;;;;;1.98;1.05;;;21.10;18.70;;;;;;4970344;28;20170;-50
2021/01/13 11:12:08;;;;;;;4.38;1.85;;;21.20;18.70;;;;;;4971793;28;20166;-49
2021/01/13 11:14:43;;;;;;;1.42;1.20;;;21.20;18.70;;;;;;4972868;28;20592;-50
2021/01/13 11:17:12;;;;;;;6.22;1.40;;;21.30;18.70;;;;;;4973715;28;20177;-50
2021/01/13 11:19:53;;;;;;;3.72;1.40;;;21.30;18.70;;;;;;4992210;28;20219;-50
2021/01/13 11:22:30;;;;;;;3.38;1.75;;;21.40;18.70;;;;;;4976570;28;20185;-50
2021/01/13 11:24:58;;;;;;;1.95;1.58;;;21.40;18.50;;;;;;4969615;28;20177;-51
2021/01/13 11:27:25;;;;;;;2.50;1.50;;;21.50;18.60;;;;;;4974261;28;20193;-51
2021/01/13 11:29:55;;;;;;;2.13;1.33;;;21.60;18.50;;;;;;4990950;28;20292;-52
2021/01/13 11:32:31;;;;;;;2.40;1.20;;;21.50;18.40;;;;;;4965158;28;20174;-52
2021/01/13 11:34:57;;;;;;;1.75;1.65;;;21.50;18.40;;;;;;4974619;28;20209;-50
2021/01/13 11:37:46;;;;;;;4.90;1.80;;;21.60;18.40;;;;;;4972186;28;20177;-51
2021/01/13 11:40:23;;;;;;;2.08;1.52;;;21.60;18.30;;;;;;4968269;28;20652;-50
2021/01/13 11:43:05;;;;;;;1.50;1.23;;;21.60;17.20;;;;;;4973697;28;20203;-51
2021/01/13 11:45:36;;;;;;;2.40;1.30;;;21.60;17.80;;;;;;4979120;28;20628;-51
2021/01/13 11:48:07;;;;;;;1.60;1.20;;;21.60;17.50;;;;;;4977924;28;20196;-51
2021/01/13 11:50:36;;;;;;;2.22;1.30;;;21.60;17.80;;;;;;4966942;28;20169;-51
2021/01/13 11:53:08;;;;;;;1.80;1.13;;;21.60;18.20;;;;;;4972007;28;20249;-50
2021/01/13 11:55:34;;;;;;;1.98;1.33;;;21.60;18.30;;;;;;4973268;28;20158;-49
2021/01/13 11:58:00;;;;;;;3.45;1.55;;;21.60;18.30;;;;;;4979199;28;20555;-50
2021/01/13 12:00:28;;;;;;;3.38;1.88;;;21.60;18.40;;;;;;4976056;28;20600;-51
2021/01/13 12:02:59;;;;;;;2.08;1.10;;;21.60;18.40;;;;;;4969746;28;20221;-50
2021/01/13 12:05:29;;;;;;;1.63;1.25;;;21.60;18.40;;;;;;4973042;28;20516;-53
2021/01/13 12:07:56;;;;;;;3.83;1.75;;;21.60;18.50;;;;;;4973085;28;20162;-52
2021/01/13 12:10:22;;;;;;;3.15;1.65;;;21.60;18.50;;;;;;4972319;28;20628;-50
2021/01/13 12:12:48;;;;;;;1.67;1.57;;;21.50;18.50;;;;;;4972620;28;20180;-51
2021/01/13 12:15:14;;;;;;;3.20;1.60;;;21.50;18.60;;;;;;4972871;28;20232;-50
2021/01/13 12:17:51;;;;;;;2.40;1.70;;;21.60;18.70;;;;;;4975677;28;20240;-49
2021/01/13 12:20:37;;;;;;;2.30;1.60;;;21.50;18.60;;;;;;4992418;28;20386;-50
2021/01/13 12:23:19;;;;;;;3.13;1.50;;;21.50;18.70;;;;;;4991254;28;20235;-50
2021/01/13 12:25:46;;;;;;;3.17;1.85;;;21.50;18.80;;;;;;4993022;28;20188;-51
2021/01/13 12:28:12;;;;;;;2.35;1.33;;;21.50;19.30;;;;;;4984359;28;20178;-51
2021/01/13 12:30:55;;;;;;;3.80;1.77;;;21.50;18.80;;;;;;4973324;28;20172;-50
2021/01/13 12:33:22;;;;;;;2.92;1.52;;;21.50;18.80;;;;;;4972887;28;20472;-49
2021/01/13 12:35:48;;;;;;;2.65;1.95;;;21.50;18.80;;;;;;4973166;28;20188;-50
2021/01/13 12:38:13;;;;;;;1.92;1.80;;;21.50;18.80;;;;;;4971620;28;20172;-51
2021/01/13 12:40:40;;;;;;;1.60;1.47;;;21.50;19.00;;;;;;4970837;28;20170;-50
2021/01/13 12:43:19;;;;;;;1.85;1.23;;;21.50;18.70;;;;;;4977625;28;20180;-51
2021/01/13 12:45:46;;;;;;;2.95;1.52;;;21.50;18.80;;;;;;4992829;28;20658;-52
2021/01/13 12:48:13;;;;;;;2.72;1.80;;;21.50;18.80;;;;;;4985507;28;20176;-51
2021/01/13 12:50:39;;;;;;;2.03;1.80;;;21.50;18.80;;;;;;4992690;28;20153;-51
2021/01/13 12:53:05;;;;;;;3.22;2.00;;;21.50;18.70;;;;;;4984814;28;20178;-51
2021/01/13 12:55:31;;;;;;;2.40;1.90;;;21.50;18.80;;;;;;4974332;28;20490;-52
2021/01/13 12:57:57;;;;;;;2.10;1.60;;;21.50;18.70;;;;;;4976935;28;20162;-49
2021/01/13 13:00:24;;;;;;;1.75;1.60;;;21.50;18.70;;;;;;4979491;28;20421;-50
2021/01/13 13:02:50;;;;;;;2.72;1.75;;;21.60;18.70;;;;;;4982077;28;20168;-51
2021/01/13 13:05:16;;;;;;;1.52;1.15;;;21.60;18.70;;;;;;4978500;28;20173;-52
2021/01/13 13:07:42;;;;;;;2.95;1.50;;;21.60;18.70;;;;;;4981448;28;20616;-52
2021/01/13 13:10:09;;;;;;;1.83;1.73;;;21.60;18.70;;;;;;4975021;28;20660;-51
2021/01/13 13:12:34;;;;;;;1.75;1.65;;;21.60;18.70;;;;;;4976046;28;20496;-51